Terminal Aerodrome Forecast
Issued by NWS

Home | Current Version | Previous Version | Text Only | Print | Product List | Glossary On
Versions: 1 2 3 4 5 6 7 8 9 10 11 12 13 14 15 16 17 18 19
000
FTPQ31 PGUM 242329
TAFGUM
TAF

TAF
PGWT 242329Z 2500/2524 09013KT P6SM VCTS SCT015CB SCT030 OVC100
      TEMPO 2502/2505 10015G23KT 3SM TSRA SCT012CB OVC025
     FM251100 10013KT 6SM -SHRA SCT015 BKN030 OVC100=

USA.gov is the U.S. government's official web portal to all federal, state and local government web resources and services.